sensor_id;sensor_type;location;lat;lon;timestamp;P1;durP1;ratioP1;P2;durP2;ratioP2
31045;SDS011;17711;54.018;9.300;2023-05-15T00:01:24;7.90;;;7.60;;
31045;SDS011;17711;54.018;9.300;2023-05-15T00:03:53;9.63;;;9.32;;
31045;SDS011;17711;54.018;9.300;2023-05-15T00:06:23;8.20;;;7.90;;
31045;SDS011;17711;54.018;9.300;2023-05-15T00:08:53;10.38;;;9.98;;
31045;SDS011;17711;54.018;9.300;2023-05-15T00:11:22;8.25;;;7.95;;
31045;SDS011;17711;54.018;9.300;2023-05-15T00:13:53;10.48;;;10.07;;
31045;SDS011;17711;54.018;9.300;2023-05-15T00:16:22;8.18;;;7.88;;
31045;SDS011;17711;54.018;9.300;2023-05-15T00:18:51;10.40;;;10.00;;
31045;SDS011;17711;54.018;9.300;2023-05-15T00:21:20;8.60;;;8.30;;
31045;SDS011;17711;54.018;9.300;2023-05-15T00:23:50;10.18;;;9.80;;
31045;SDS011;17711;54.018;9.300;2023-05-15T00:26:21;8.25;;;7.95;;
31045;SDS011;17711;54.018;9.300;2023-05-15T00:28:50;21.85;;;20.05;;
31045;SDS011;17711;54.018;9.300;2023-05-15T00:31:19;8.50;;;8.20;;
31045;SDS011;17711;54.018;9.300;2023-05-15T00:33:47;9.48;;;9.18;;
31045;SDS011;17711;54.018;9.300;2023-05-15T00:36:16;8.60;;;8.30;;
31045;SDS011;17711;54.018;9.300;2023-05-15T00:38:47;9.82;;;9.45;;
31045;SDS011;17711;54.018;9.300;2023-05-15T00:41:17;8.20;;;7.90;;
31045;SDS011;17711;54.018;9.300;2023-05-15T00:43:47;9.23;;;8.85;;
31045;SDS011;17711;54.018;9.300;2023-05-15T00:46:18;8.70;;;8.40;;
31045;SDS011;17711;54.018;9.300;2023-05-15T00:48:48;10.32;;;9.95;;
31045;SDS011;17711;54.018;9.300;2023-05-15T00:51:17;8.15;;;7.85;;
31045;SDS011;17711;54.018;9.300;2023-05-15T00:53:46;8.85;;;8.55;;
31045;SDS011;17711;54.018;9.300;2023-05-15T00:56:17;8.65;;;8.35;;
31045;SDS011;17711;54.018;9.300;2023-05-15T00:58:47;9.68;;;9.35;;
31045;SDS011;17711;54.018;9.300;2023-05-15T01:01:17;8.70;;;8.40;;
31045;SDS011;17711;54.018;9.300;2023-05-15T01:03:46;9.32;;;8.98;;
31045;SDS011;17711;54.018;9.300;2023-05-15T01:06:15;8.40;;;8.10;;
31045;SDS011;17711;54.018;9.300;2023-05-15T01:08:44;8.27;;;7.97;;
31045;SDS011;17711;54.018;9.300;2023-05-15T01:11:14;8.18;;;7.88;;
31045;SDS011;17711;54.018;9.300;2023-05-15T01:13:45;8.60;;;8.30;;
31045;SDS011;17711;54.018;9.300;2023-05-15T01:16:14;8.70;;;8.40;;
31045;SDS011;17711;54.018;9.300;2023-05-15T01:18:43;8.63;;;8.32;;
31045;SDS011;17711;54.018;9.300;2023-05-15T01:24:17;8.85;;;8.55;;
31045;SDS011;17711;54.018;9.300;2023-05-15T01:27:06;10.27;;;9.88;;
31045;SDS011;17711;54.018;9.300;2023-05-15T01:29:43;8.45;;;8.15;;
31045;SDS011;17711;54.018;9.300;2023-05-15T01:32:23;8.88;;;8.57;;
31045;SDS011;17711;54.018;9.300;2023-05-15T01:34:58;10.73;;;10.32;;
31045;SDS011;17711;54.018;9.300;2023-05-15T01:37:32;8.68;;;8.38;;
31045;SDS011;17711;54.018;9.300;2023-05-15T01:40:07;8.40;;;8.10;;
31045;SDS011;17711;54.018;9.300;2023-05-15T01:42:41;8.48;;;8.18;;
31045;SDS011;17711;54.018;9.300;2023-05-15T01:45:17;8.60;;;8.30;;
31045;SDS011;17711;54.018;9.300;2023-05-15T01:47:52;10.63;;;10.23;;
31045;SDS011;17711;54.018;9.300;2023-05-15T01:50:21;9.25;;;8.95;;
31045;SDS011;17711;54.018;9.300;2023-05-15T01:52:50;10.90;;;10.50;;
31045;SDS011;17711;54.018;9.300;2023-05-15T01:55:23;8.93;;;8.63;;
31045;SDS011;17711;54.018;9.300;2023-05-15T01:57:55;10.88;;;10.48;;
31045;SDS011;17711;54.018;9.300;2023-05-15T02:00:27;8.40;;;8.10;;
31045;SDS011;17711;54.018;9.300;2023-05-15T02:02:57;10.13;;;9.75;;
31045;SDS011;17711;54.018;9.300;2023-05-15T02:05:26;8.75;;;8.45;;
31045;SDS011;17711;54.018;9.300;2023-05-15T02:07:56;10.32;;;9.93;;
31045;SDS011;17711;54.018;9.300;2023-05-15T02:10:26;8.40;;;8.10;;
31045;SDS011;17711;54.018;9.300;2023-05-15T02:12:56;10.32;;;9.93;;
31045;SDS011;17711;54.018;9.300;2023-05-15T02:15:27;8.75;;;8.45;;
31045;SDS011;17711;54.018;9.300;2023-05-15T02:17:56;10.85;;;10.45;;
31045;SDS011;17711;54.018;9.300;2023-05-15T02:20:25;9.07;;;8.77;;
31045;SDS011;17711;54.018;9.300;2023-05-15T02:22:53;10.40;;;10.00;;
31045;SDS011;17711;54.018;9.300;2023-05-15T02:25:24;9.18;;;8.88;;
31045;SDS011;17711;54.018;9.300;2023-05-15T02:28:02;10.65;;;10.25;;
31045;SDS011;17711;54.018;9.300;2023-05-15T02:30:37;8.70;;;8.40;;
31045;SDS011;17711;54.018;9.300;2023-05-15T02:33:11;9.00;;;8.70;;
31045;SDS011;17711;54.018;9.300;2023-05-15T02:35:49;10.15;;;9.77;;
31045;SDS011;17711;54.018;9.300;2023-05-15T02:38:24;9.10;;;8.80;;
31045;SDS011;17711;54.018;9.300;2023-05-15T02:40:55;11.40;;;11.00;;
31045;SDS011;17711;54.018;9.300;2023-05-15T02:43:27;9.10;;;8.80;;
31045;SDS011;17711;54.018;9.300;2023-05-15T02:45:56;12.02;;;11.63;;
31045;SDS011;17711;54.018;9.300;2023-05-15T02:48:26;8.60;;;8.30;;
31045;SDS011;17711;54.018;9.300;2023-05-15T02:50:56;10.55;;;10.15;;
31045;SDS011;17711;54.018;9.300;2023-05-15T02:53:24;9.25;;;8.95;;
31045;SDS011;17711;54.018;9.300;2023-05-15T02:55:53;10.45;;;10.05;;
31045;SDS011;17711;54.018;9.300;2023-05-15T02:58:22;8.85;;;8.55;;
31045;SDS011;17711;54.018;9.300;2023-05-15T03:00:52;10.30;;;9.90;;
31045;SDS011;17711;54.018;9.300;2023-05-15T03:03:22;8.68;;;8.38;;
31045;SDS011;17711;54.018;9.300;2023-05-15T03:05:51;10.07;;;9.75;;
31045;SDS011;17711;54.018;9.300;2023-05-15T03:08:19;9.10;;;8.80;;
31045;SDS011;17711;54.018;9.300;2023-05-15T03:10:48;11.05;;;10.65;;
31045;SDS011;17711;54.018;9.300;2023-05-15T03:13:17;8.95;;;8.65;;
31045;SDS011;17711;54.018;9.300;2023-05-15T03:15:46;8.82;;;8.52;;
31045;SDS011;17711;54.018;9.300;2023-05-15T03:18:16;8.35;;;8.05;;
31045;SDS011;17711;54.018;9.300;2023-05-15T03:20:46;8.98;;;8.68;;
31045;SDS011;17711;54.018;9.300;2023-05-15T03:23:15;38.05;;;36.60;;
31045;SDS011;17711;54.018;9.300;2023-05-15T03:25:43;8.65;;;8.35;;
31045;SDS011;17711;54.018;9.300;2023-05-15T03:28:12;9.00;;;8.70;;
31045;SDS011;17711;54.018;9.300;2023-05-15T03:30:42;8.68;;;8.38;;
31045;SDS011;17711;54.018;9.300;2023-05-15T03:33:11;10.75;;;10.30;;
31045;SDS011;17711;54.018;9.300;2023-05-15T03:35:41;9.00;;;8.70;;
31045;SDS011;17711;54.018;9.300;2023-05-15T03:38:10;8.57;;;8.27;;
31045;SDS011;17711;54.018;9.300;2023-05-15T03:40:38;9.07;;;8.77;;
31045;SDS011;17711;54.018;9.300;2023-05-15T03:43:07;8.60;;;8.30;;
31045;SDS011;17711;54.018;9.300;2023-05-15T03:45:36;8.95;;;8.65;;
31045;SDS011;17711;54.018;9.300;2023-05-15T03:48:05;9.15;;;8.85;;
31045;SDS011;17711;54.018;9.300;2023-05-15T03:50:34;8.98;;;8.68;;
31045;SDS011;17711;54.018;9.300;2023-05-15T03:53:04;9.02;;;8.73;;
31045;SDS011;17711;54.018;9.300;2023-05-15T03:55:32;8.80;;;8.50;;
31045;SDS011;17711;54.018;9.300;2023-05-15T03:58:02;10.85;;;10.45;;
31045;SDS011;17711;54.018;9.300;2023-05-15T04:00:30;9.25;;;8.95;;
31045;SDS011;17711;54.018;9.300;2023-05-15T04:02:59;10.45;;;10.05;;
31045;SDS011;17711;54.018;9.300;2023-05-15T04:05:28;9.00;;;8.70;;
31045;SDS011;17711;54.018;9.300;2023-05-15T04:07:57;10.75;;;10.35;;
31045;SDS011;17711;54.018;9.300;2023-05-15T04:10:27;9.23;;;8.93;;
31045;SDS011;17711;54.018;9.300;2023-05-15T04:12:57;10.63;;;10.23;;
31045;SDS011;17711;54.018;9.300;2023-05-15T04:15:25;9.30;;;9.00;;
31045;SDS011;17711;54.018;9.300;2023-05-15T04:17:54;12.30;;;11.85;;
31045;SDS011;17711;54.018;9.300;2023-05-15T04:20:23;9.35;;;9.05;;
31045;SDS011;17711;54.018;9.300;2023-05-15T04:22:52;11.35;;;10.95;;
31045;SDS011;17711;54.018;9.300;2023-05-15T04:25:20;9.90;;;9.60;;
31045;SDS011;17711;54.018;9.300;2023-05-15T04:27:51;13.70;;;13.20;;
31045;SDS011;17711;54.018;9.300;2023-05-15T04:30:20;9.75;;;9.45;;
31045;SDS011;17711;54.018;9.300;2023-05-15T04:32:48;11.25;;;10.85;;
31045;SDS011;17711;54.018;9.300;2023-05-15T04:35:17;9.30;;;9.00;;
31045;SDS011;17711;54.018;9.300;2023-05-15T04:37:46;12.20;;;11.60;;
31045;SDS011;17711;54.018;9.300;2023-05-15T04:40:14;9.95;;;9.65;;
31045;SDS011;17711;54.018;9.300;2023-05-15T04:42:43;10.02;;;9.70;;
31045;SDS011;17711;54.018;9.300;2023-05-15T04:45:13;9.70;;;9.40;;
31045;SDS011;17711;54.018;9.300;2023-05-15T04:47:42;9.75;;;9.45;;
31045;SDS011;17711;54.018;9.300;2023-05-15T04:50:11;10.02;;;9.70;;
31045;SDS011;17711;54.018;9.300;2023-05-15T04:52:39;9.75;;;9.45;;
31045;SDS011;17711;54.018;9.300;2023-05-15T04:55:08;9.60;;;9.30;;
31045;SDS011;17711;54.018;9.300;2023-05-15T04:57:37;10.75;;;10.35;;
31045;SDS011;17711;54.018;9.300;2023-05-15T05:00:06;9.90;;;9.60;;
31045;SDS011;17711;54.018;9.300;2023-05-15T05:02:39;9.77;;;9.48;;
31045;SDS011;17711;54.018;9.300;2023-05-15T05:05:09;10.27;;;9.88;;
31045;SDS011;17711;54.018;9.300;2023-05-15T05:07:40;9.88;;;9.57;;
31045;SDS011;17711;54.018;9.300;2023-05-15T05:10:11;26.95;;;25.90;;
31045;SDS011;17711;54.018;9.300;2023-05-15T05:12:39;9.65;;;9.35;;
31045;SDS011;17711;54.018;9.300;2023-05-15T05:15:09;9.70;;;9.40;;
31045;SDS011;17711;54.018;9.300;2023-05-15T05:17:39;10.02;;;9.73;;
31045;SDS011;17711;54.018;9.300;2023-05-15T05:20:08;9.77;;;9.48;;
31045;SDS011;17711;54.018;9.300;2023-05-15T05:22:38;10.30;;;9.90;;
31045;SDS011;17711;54.018;9.300;2023-05-15T05:25:08;17.35;;;16.50;;
31045;SDS011;17711;54.018;9.300;2023-05-15T05:27:37;10.38;;;9.98;;
31045;SDS011;17711;54.018;9.300;2023-05-15T05:30:06;10.40;;;10.00;;
31045;SDS011;17711;54.018;9.300;2023-05-15T05:32:35;10.50;;;10.10;;
31045;SDS011;17711;54.018;9.300;2023-05-15T05:35:05;9.60;;;9.30;;
31045;SDS011;17711;54.018;9.300;2023-05-15T05:37:35;10.57;;;10.18;;
31045;SDS011;17711;54.018;9.300;2023-05-15T05:40:06;9.82;;;9.52;;
31045;SDS011;17711;54.018;9.300;2023-05-15T05:42:36;10.65;;;10.25;;
31045;SDS011;17711;54.018;9.300;2023-05-15T05:45:05;10.55;;;10.15;;
31045;SDS011;17711;54.018;9.300;2023-05-15T05:47:34;10.70;;;10.30;;
31045;SDS011;17711;54.018;9.300;2023-05-15T05:50:03;10.45;;;10.05;;
31045;SDS011;17711;54.018;9.300;2023-05-15T05:52:33;10.80;;;10.40;;
31045;SDS011;17711;54.018;9.300;2023-05-15T05:55:02;13.05;;;12.55;;
31045;SDS011;17711;54.018;9.300;2023-05-15T05:57:31;10.32;;;9.93;;
31045;SDS011;17711;54.018;9.300;2023-05-15T05:59:59;12.25;;;11.82;;
31045;SDS011;17711;54.018;9.300;2023-05-15T06:02:28;10.60;;;10.20;;
31045;SDS011;17711;54.018;9.300;2023-05-15T06:04:57;11.68;;;11.27;;
31045;SDS011;17711;54.018;9.300;2023-05-15T06:07:26;11.18;;;10.77;;
31045;SDS011;17711;54.018;9.300;2023-05-15T06:09:56;12.57;;;12.07;;
31045;SDS011;17711;54.018;9.300;2023-05-15T06:12:25;11.57;;;11.18;;
31045;SDS011;17711;54.018;9.300;2023-05-15T06:14:54;12.60;;;12.10;;
31045;SDS011;17711;54.018;9.300;2023-05-15T06:17:22;11.23;;;10.82;;
31045;SDS011;17711;54.018;9.300;2023-05-15T06:19:51;12.48;;;12.00;;
31045;SDS011;17711;54.018;9.300;2023-05-15T06:22:20;12.57;;;12.13;;
31045;SDS011;17711;54.018;9.300;2023-05-15T06:24:49;12.88;;;12.38;;
31045;SDS011;17711;54.018;9.300;2023-05-15T06:27:19;11.18;;;10.77;;
31045;SDS011;17711;54.018;9.300;2023-05-15T06:29:47;12.25;;;11.77;;
31045;SDS011;17711;54.018;9.300;2023-05-15T06:32:16;11.32;;;10.93;;
31045;SDS011;17711;54.018;9.300;2023-05-15T06:34:44;11.55;;;11.15;;
31045;SDS011;17711;54.018;9.300;2023-05-15T06:37:13;10.93;;;10.52;;
31045;SDS011;17711;54.018;9.300;2023-05-15T06:39:42;11.50;;;11.10;;
31045;SDS011;17711;54.018;9.300;2023-05-15T06:42:11;10.85;;;10.45;;
31045;SDS011;17711;54.018;9.300;2023-05-15T06:44:42;11.50;;;11.10;;
31045;SDS011;17711;54.018;9.300;2023-05-15T06:47:10;11.70;;;11.30;;
31045;SDS011;17711;54.018;9.300;2023-05-15T06:49:39;11.23;;;10.82;;
31045;SDS011;17711;54.018;9.300;2023-05-15T06:52:08;11.60;;;11.20;;
31045;SDS011;17711;54.018;9.300;2023-05-15T06:54:36;11.10;;;10.70;;
31045;SDS011;17711;54.018;9.300;2023-05-15T06:57:06;11.40;;;11.00;;
31045;SDS011;17711;54.018;9.300;2023-05-15T06:59:34;11.30;;;10.90;;
31045;SDS011;17711;54.018;9.300;2023-05-15T07:02:04;11.23;;;10.82;;
31045;SDS011;17711;54.018;9.300;2023-05-15T07:04:33;11.35;;;10.95;;
31045;SDS011;17711;54.018;9.300;2023-05-15T07:07:01;12.23;;;11.82;;
31045;SDS011;17711;54.018;9.300;2023-05-15T07:09:30;11.30;;;10.90;;
31045;SDS011;17711;54.018;9.300;2023-05-15T07:11:58;12.93;;;12.43;;
31045;SDS011;17711;54.018;9.300;2023-05-15T07:14:27;11.80;;;11.40;;
31045;SDS011;17711;54.018;9.300;2023-05-15T07:16:55;12.75;;;12.25;;
31045;SDS011;17711;54.018;9.300;2023-05-15T07:19:25;11.93;;;11.52;;
31045;SDS011;17711;54.018;9.300;2023-05-15T07:21:54;13.15;;;12.65;;
31045;SDS011;17711;54.018;9.300;2023-05-15T07:24:23;11.90;;;11.50;;
31045;SDS011;17711;54.018;9.300;2023-05-15T07:26:51;15.35;;;14.75;;
31045;SDS011;17711;54.018;9.300;2023-05-15T07:29:24;11.93;;;11.52;;
31045;SDS011;17711;54.018;9.300;2023-05-15T07:31:53;13.85;;;13.35;;
31045;SDS011;17711;54.018;9.300;2023-05-15T07:34:21;12.70;;;12.20;;
31045;SDS011;17711;54.018;9.300;2023-05-15T07:36:51;14.60;;;14.07;;
31045;SDS011;17711;54.018;9.300;2023-05-15T07:39:20;14.18;;;13.68;;
31045;SDS011;17711;54.018;9.300;2023-05-15T07:41:48;14.48;;;13.98;;
31045;SDS011;17711;54.018;9.300;2023-05-15T07:44:17;12.90;;;12.40;;
31045;SDS011;17711;54.018;9.300;2023-05-15T07:46:45;14.02;;;13.50;;
31045;SDS011;17711;54.018;9.300;2023-05-15T07:49:14;13.70;;;13.20;;
31045;SDS011;17711;54.018;9.300;2023-05-15T07:51:42;15.45;;;14.85;;
31045;SDS011;17711;54.018;9.300;2023-05-15T07:54:13;15.70;;;15.10;;
31045;SDS011;17711;54.018;9.300;2023-05-15T07:56:41;15.23;;;14.63;;
31045;SDS011;17711;54.018;9.300;2023-05-15T07:59:10;14.60;;;14.10;;
31045;SDS011;17711;54.018;9.300;2023-05-15T08:01:38;14.90;;;14.40;;
31045;SDS011;17711;54.018;9.300;2023-05-15T08:04:07;15.48;;;14.88;;
31045;SDS011;17711;54.018;9.300;2023-05-15T08:06:36;17.23;;;16.63;;
31045;SDS011;17711;54.018;9.300;2023-05-15T08:09:05;19.48;;;18.77;;
31045;SDS011;17711;54.018;9.300;2023-05-15T08:11:35;31.40;;;30.20;;
31045;SDS011;17711;54.018;9.300;2023-05-15T08:14:03;29.15;;;28.02;;
31045;SDS011;17711;54.018;9.300;2023-05-15T08:16:32;29.08;;;27.98;;
31045;SDS011;17711;54.018;9.300;2023-05-15T08:19:01;1999.90;;;999.90;;
31045;SDS011;17711;54.018;9.300;2023-05-15T08:21:32;1999.90;;;999.90;;
31045;SDS011;17711;54.018;9.300;2023-05-15T08:24:01;1999.90;;;999.90;;
31045;SDS011;17711;54.018;9.300;2023-05-15T08:26:29;1999.90;;;999.90;;
31045;SDS011;17711;54.018;9.300;2023-05-15T08:29:00;1999.90;;;999.90;;
31045;SDS011;17711;54.018;9.300;2023-05-15T08:31:28;1999.90;;;999.90;;
31045;SDS011;17711;54.018;9.300;2023-05-15T08:33:57;1999.90;;;999.90;;
31045;SDS011;17711;54.018;9.300;2023-05-15T08:36:26;1999.90;;;999.90;;
31045;SDS011;17711;54.018;9.300;2023-05-15T08:38:54;1999.90;;;999.90;;
31045;SDS011;17711;54.018;9.300;2023-05-15T08:41:26;1999.90;;;999.90;;
31045;SDS011;17711;54.018;9.300;2023-05-15T08:44:07;1999.90;;;999.90;;
31045;SDS011;17711;54.018;9.300;2023-05-15T08:46:37;1999.90;;;999.90;;
31045;SDS011;17711;54.018;9.300;2023-05-15T08:49:08;1999.90;;;999.90;;
31045;SDS011;17711;54.018;9.300;2023-05-15T08:51:42;1999.90;;;999.90;;
31045;SDS011;17711;54.018;9.300;2023-05-15T08:54:11;1999.90;;;999.90;;
31045;SDS011;17711;54.018;9.300;2023-05-15T08:56:41;1999.90;;;999.90;;
31045;SDS011;17711;54.018;9.300;2023-05-15T08:59:13;1999.90;;;999.90;;
31045;SDS011;17711;54.018;9.300;2023-05-15T09:01:42;1999.90;;;999.90;;
31045;SDS011;17711;54.018;9.300;2023-05-15T09:04:11;1999.90;;;999.90;;
31045;SDS011;17711;54.018;9.300;2023-05-15T09:06:40;1999.90;;;999.90;;
31045;SDS011;17711;54.018;9.300;2023-05-15T09:09:10;1999.90;;;999.90;;
31045;SDS011;17711;54.018;9.300;2023-05-15T09:11:40;1999.90;;;999.90;;
31045;SDS011;17711;54.018;9.300;2023-05-15T09:14:11;1999.90;;;999.90;;
31045;SDS011;17711;54.018;9.300;2023-05-15T09:16:41;1999.90;;;999.90;;
31045;SDS011;17711;54.018;9.300;2023-05-15T09:19:12;1999.90;;;999.90;;
31045;SDS011;17711;54.018;9.300;2023-05-15T09:21:42;1999.90;;;999.90;;
31045;SDS011;17711;54.018;9.300;2023-05-15T09:24:14;1999.90;;;999.90;;
31045;SDS011;17711;54.018;9.300;2023-05-15T09:26:43;1999.90;;;999.90;;
31045;SDS011;17711;54.018;9.300;2023-05-15T09:29:14;1999.90;;;999.90;;
31045;SDS011;17711;54.018;9.300;2023-05-15T09:31:46;1999.90;;;999.90;;
31045;SDS011;17711;54.018;9.300;2023-05-15T09:34:15;1999.90;;;999.90;;
31045;SDS011;17711;54.018;9.300;2023-05-15T09:36:44;1999.90;;;999.90;;
31045;SDS011;17711;54.018;9.300;2023-05-15T09:39:12;1999.90;;;999.90;;
31045;SDS011;17711;54.018;9.300;2023-05-15T09:41:41;1999.90;;;999.90;;
31045;SDS011;17711;54.018;9.300;2023-05-15T09:44:23;1999.90;;;999.90;;
31045;SDS011;17711;54.018;9.300;2023-05-15T09:46:53;1999.90;;;999.90;;
31045;SDS011;17711;54.018;9.300;2023-05-15T09:49:23;1999.90;;;999.90;;
31045;SDS011;17711;54.018;9.300;2023-05-15T09:51:52;1999.90;;;999.90;;
31045;SDS011;17711;54.018;9.300;2023-05-15T09:54:21;1999.90;;;999.90;;
31045;SDS011;17711;54.018;9.300;2023-05-15T09:56:50;1999.90;;;999.90;;
31045;SDS011;17711;54.018;9.300;2023-05-15T09:59:19;1999.90;;;999.90;;
31045;SDS011;17711;54.018;9.300;2023-05-15T10:01:48;1999.90;;;999.90;;
31045;SDS011;17711;54.018;9.300;2023-05-15T10:04:19;1999.90;;;999.90;;
31045;SDS011;17711;54.018;9.300;2023-05-15T10:06:48;1999.90;;;999.90;;
31045;SDS011;17711;54.018;9.300;2023-05-15T10:09:17;1999.90;;;999.90;;
31045;SDS011;17711;54.018;9.300;2023-05-15T10:11:49;1999.90;;;999.90;;
31045;SDS011;17711;54.018;9.300;2023-05-15T10:14:18;1999.90;;;999.90;;
31045;SDS011;17711;54.018;9.300;2023-05-15T10:16:49;1999.90;;;999.90;;
31045;SDS011;17711;54.018;9.300;2023-05-15T10:19:19;1999.90;;;999.90;;
31045;SDS011;17711;54.018;9.300;2023-05-15T10:21:51;1999.90;;;999.90;;
31045;SDS011;17711;54.018;9.300;2023-05-15T10:24:22;1999.90;;;999.90;;
31045;SDS011;17711;54.018;9.300;2023-05-15T10:26:55;1999.90;;;999.90;;
31045;SDS011;17711;54.018;9.300;2023-05-15T10:29:24;1999.90;;;999.90;;
31045;SDS011;17711;54.018;9.300;2023-05-15T10:31:54;1999.90;;;999.90;;
31045;SDS011;17711;54.018;9.300;2023-05-15T10:34:26;1999.90;;;999.90;;
31045;SDS011;17711;54.018;9.300;2023-05-15T10:36:55;41.05;;;39.20;;
31045;SDS011;17711;54.018;9.300;2023-05-15T10:39:24;37.28;;;35.67;;
31045;SDS011;17711;54.018;9.300;2023-05-15T10:41:55;39.85;;;38.00;;
31045;SDS011;17711;54.018;9.300;2023-05-15T10:44:25;36.03;;;34.53;;
31045;SDS011;17711;54.018;9.300;2023-05-15T10:46:54;35.70;;;34.10;;
31045;SDS011;17711;54.018;9.300;2023-05-15T10:49:23;34.63;;;33.22;;
31045;SDS011;17711;54.018;9.300;2023-05-15T10:51:53;35.38;;;33.83;;
31045;SDS011;17711;54.018;9.300;2023-05-15T10:54:22;32.25;;;30.95;;
31045;SDS011;17711;54.018;9.300;2023-05-15T10:56:51;34.22;;;32.72;;
31045;SDS011;17711;54.018;9.300;2023-05-15T10:59:29;31.35;;;30.05;;
31045;SDS011;17711;54.018;9.300;2023-05-15T11:02:10;32.85;;;31.45;;
31045;SDS011;17711;54.018;9.300;2023-05-15T11:04:48;1999.90;;;999.90;;
31045;SDS011;17711;54.018;9.300;2023-05-15T11:07:22;1999.90;;;999.90;;
31045;SDS011;17711;54.018;9.300;2023-05-15T11:09:51;1999.90;;;999.90;;
31045;SDS011;17711;54.018;9.300;2023-05-15T11:12:20;1999.90;;;999.90;;
31045;SDS011;17711;54.018;9.300;2023-05-15T11:20:36;1999.90;;;999.90;;
31045;SDS011;17711;54.018;9.300;2023-05-15T11:23:06;1999.90;;;999.90;;
31045;SDS011;17711;54.018;9.300;2023-05-15T11:25:35;1999.90;;;999.90;;
31045;SDS011;17711;54.018;9.300;2023-05-15T11:28:03;1999.90;;;999.90;;
31045;SDS011;17711;54.018;9.300;2023-05-15T11:30:34;1999.90;;;999.90;;
31045;SDS011;17711;54.018;9.300;2023-05-15T11:33:04;1999.90;;;999.90;;
31045;SDS011;17711;54.018;9.300;2023-05-15T11:35:39;1999.90;;;999.90;;
31045;SDS011;17711;54.018;9.300;2023-05-15T11:38:10;1999.90;;;999.90;;
31045;SDS011;17711;54.018;9.300;2023-05-15T11:40:44;1999.90;;;999.90;;
31045;SDS011;17711;54.018;9.300;2023-05-15T11:43:17;1999.90;;;999.90;;
31045;SDS011;17711;54.018;9.300;2023-05-15T11:45:47;1999.90;;;999.90;;
31045;SDS011;17711;54.018;9.300;2023-05-15T11:48:18;1999.90;;;999.90;;
31045;SDS011;17711;54.018;9.300;2023-05-15T11:50:48;1999.90;;;999.90;;
31045;SDS011;17711;54.018;9.300;2023-05-15T11:53:19;1999.90;;;999.90;;
31045;SDS011;17711;54.018;9.300;2023-05-15T11:55:50;1999.90;;;999.90;;
31045;SDS011;17711;54.018;9.300;2023-05-15T11:58:20;1999.90;;;999.90;;
31045;SDS011;17711;54.018;9.300;2023-05-15T12:00:50;1999.90;;;999.90;;
31045;SDS011;17711;54.018;9.300;2023-05-15T12:03:22;1999.90;;;999.90;;
31045;SDS011;17711;54.018;9.300;2023-05-15T12:05:53;1999.90;;;999.90;;
31045;SDS011;17711;54.018;9.300;2023-05-15T12:08:25;1999.90;;;999.90;;
31045;SDS011;17711;54.018;9.300;2023-05-15T12:10:59;1999.90;;;999.90;;
31045;SDS011;17711;54.018;9.300;2023-05-15T12:13:28;1999.90;;;999.90;;
31045;SDS011;17711;54.018;9.300;2023-05-15T12:15:58;1999.90;;;999.90;;
31045;SDS011;17711;54.018;9.300;2023-05-15T12:18:28;1999.90;;;999.90;;
31045;SDS011;17711;54.018;9.300;2023-05-15T12:20:59;1999.90;;;999.90;;
31045;SDS011;17711;54.018;9.300;2023-05-15T12:23:27;1999.90;;;999.90;;
31045;SDS011;17711;54.018;9.300;2023-05-15T12:25:57;1999.90;;;999.90;;
31045;SDS011;17711;54.018;9.300;2023-05-15T12:28:28;1999.90;;;999.90;;
31045;SDS011;17711;54.018;9.300;2023-05-15T12:31:00;1999.90;;;999.90;;
31045;SDS011;17711;54.018;9.300;2023-05-15T12:33:32;1999.90;;;999.90;;
31045;SDS011;17711;54.018;9.300;2023-05-15T12:36:02;1999.90;;;999.90;;
31045;SDS011;17711;54.018;9.300;2023-05-15T12:38:31;1999.90;;;999.90;;
31045;SDS011;17711;54.018;9.300;2023-05-15T12:41:00;1999.90;;;999.90;;
31045;SDS011;17711;54.018;9.300;2023-05-15T12:43:29;1999.90;;;999.90;;
31045;SDS011;17711;54.018;9.300;2023-05-15T12:45:58;1999.90;;;999.90;;
31045;SDS011;17711;54.018;9.300;2023-05-15T12:48:30;1999.90;;;999.90;;
31045;SDS011;17711;54.018;9.300;2023-05-15T12:53:33;1999.90;;;999.90;;
31045;SDS011;17711;54.018;9.300;2023-05-15T12:56:05;1999.90;;;999.90;;
31045;SDS011;17711;54.018;9.300;2023-05-15T12:58:36;1999.90;;;999.90;;
31045;SDS011;17711;54.018;9.300;2023-05-15T13:01:05;1999.90;;;999.90;;
31045;SDS011;17711;54.018;9.300;2023-05-15T13:03:36;39.83;;;38.22;;
31045;SDS011;17711;54.018;9.300;2023-05-15T13:06:12;60.58;;;56.85;;
31045;SDS011;17711;54.018;9.300;2023-05-15T13:08:41;37.17;;;35.67;;
31045;SDS011;17711;54.018;9.300;2023-05-15T13:11:27;528.95;;;277.75;;
31045;SDS011;17711;54.018;9.300;2023-05-15T13:13:57;42.17;;;40.30;;
31045;SDS011;17711;54.018;9.300;2023-05-15T13:16:26;38.30;;;36.70;;
31045;SDS011;17711;54.018;9.300;2023-05-15T13:18:56;42.38;;;40.45;;
31045;SDS011;17711;54.018;9.300;2023-05-15T13:21:26;160.18;;;153.40;;
31045;SDS011;17711;54.018;9.300;2023-05-15T13:23:55;42.92;;;41.00;;
31045;SDS011;17711;54.018;9.300;2023-05-15T13:26:24;43.38;;;41.58;;
31045;SDS011;17711;54.018;9.300;2023-05-15T13:28:53;1999.90;;;999.90;;
31045;SDS011;17711;54.018;9.300;2023-05-15T13:31:21;1999.90;;;999.90;;
31045;SDS011;17711;54.018;9.300;2023-05-15T13:33:50;1999.90;;;999.90;;
31045;SDS011;17711;54.018;9.300;2023-05-15T13:36:19;43.55;;;41.75;;
31045;SDS011;17711;54.018;9.300;2023-05-15T13:38:49;47.60;;;45.50;;
31045;SDS011;17711;54.018;9.300;2023-05-15T13:41:18;1999.90;;;999.90;;
31045;SDS011;17711;54.018;9.300;2023-05-15T13:43:48;45.83;;;43.83;;
31045;SDS011;17711;54.018;9.300;2023-05-15T13:46:16;43.95;;;42.15;;
31045;SDS011;17711;54.018;9.300;2023-05-15T13:48:45;1999.90;;;999.90;;
31045;SDS011;17711;54.018;9.300;2023-05-15T13:51:14;39.65;;;38.05;;
31045;SDS011;17711;54.018;9.300;2023-05-15T13:53:46;1999.90;;;999.90;;
31045;SDS011;17711;54.018;9.300;2023-05-15T13:56:16;1999.90;;;999.90;;
31045;SDS011;17711;54.018;9.300;2023-05-15T13:58:45;1999.90;;;999.90;;
31045;SDS011;17711;54.018;9.300;2023-05-15T14:01:14;39.30;;;37.70;;
31045;SDS011;17711;54.018;9.300;2023-05-15T14:03:44;39.75;;;38.15;;
31045;SDS011;17711;54.018;9.300;2023-05-15T14:06:13;41.30;;;39.60;;
31045;SDS011;17711;54.018;9.300;2023-05-15T14:08:42;39.88;;;38.20;;
31045;SDS011;17711;54.018;9.300;2023-05-15T14:11:14;40.53;;;38.90;;
31045;SDS011;17711;54.018;9.300;2023-05-15T14:13:44;39.50;;;37.90;;
31045;SDS011;17711;54.018;9.300;2023-05-15T14:16:14;40.22;;;38.60;;
31045;SDS011;17711;54.018;9.300;2023-05-15T14:18:42;42.17;;;40.47;;
31045;SDS011;17711;54.018;9.300;2023-05-15T14:21:12;441.30;;;420.38;;
31045;SDS011;17711;54.018;9.300;2023-05-15T14:23:41;77.25;;;73.70;;
31045;SDS011;17711;54.018;9.300;2023-05-15T14:26:10;38.53;;;36.92;;
31045;SDS011;17711;54.018;9.300;2023-05-15T14:28:40;39.47;;;37.80;;
31045;SDS011;17711;54.018;9.300;2023-05-15T14:31:10;44.05;;;42.25;;
31045;SDS011;17711;54.018;9.300;2023-05-15T14:33:40;39.30;;;37.60;;
31045;SDS011;17711;54.018;9.300;2023-05-15T14:36:09;35.38;;;33.97;;
31045;SDS011;17711;54.018;9.300;2023-05-15T14:38:40;37.08;;;35.58;;
31045;SDS011;17711;54.018;9.300;2023-05-15T14:41:11;42.60;;;40.85;;
31045;SDS011;17711;54.018;9.300;2023-05-15T14:43:39;46.00;;;44.10;;